Amherst, Texas
Current Conditions -  °F | °C
As of 6:55 PM on Saturday 20 Dec 2014 (Local Time) from KPVW Reporting Station
Clear Clear  
Wind Chill: 35°   Ceiling: Unl
Heat Index: 40°   Visibility: 10mi
Dew Point: 36°   Wind: 7mph
Humidity: 88%   Direction: 170°S
Pressure: 30.02"   Gusts: NA
Location:  34.01°N, 102.42°W
Report Text: KPVW 210055Z AUTO 17006KT 10SM CLR 04/02 A3002 RMK AO2 T00430024
Loading
Personal Weather Stations






























Interactive Weather Map New forecast layout! Learn more

10-Day Weather Forecast

Advertisements
Track Severe Weather on mobile